Impacts TAF Board INFO
FOR SITUATIONAL AWARENESS. NOT TO BE USED FOR FLIGHT PLANNING PURPOSES.
IDs:

KSTL - St Louis/Lambert Int, MO, US

Issued at 1504 UTC 25 Apr 2018
Updated at 1609 UTC 25 Apr 2018
Potential Impact None Slight Moderate High
Time1551Z 25/17Z 25/18Z 25/19Z 25/20Z 25/21Z 25/22Z 25/23Z 26/00Z 26/01Z 26/02Z 26/03Z 26/04Z 26/05Z>>
Type OBS PRVL PRVL PRVL PRVL PRVL PRVL PRVL PRVL PRVL PRVL PRVL PRVL PRVL
VIS 10 >6 >6 >6 >6 >6 >6 >6 >6 >6 >6 >6 >6 >6
CIG 200 150 150 150 150 150 50 50 50 50 50 100 100 100
Cover OVC OVC OVC OVC OVC OVC OVC OVC OVC OVC OVC OVC OVC OVC
FltCat VFR VFR VFR VFR VFR VFR VFR VFR VFR VFR VFR VFR VFR VFR
WX -- -- -- -- -- -- VCSH VCSH VCSH VCSH VCSH -- -- --
WDir 20 360 360 360 360 360 20 20 20 20 20 40 40 40
WSpd 8 8 8 8 8 8 9 9 9 9 9 6 6 6
WGst -- -- -- -- -- -- -- -- -- -- -- -- -- --

Raw TAF
KSTL 251504Z 2515/2618 36008KT P6SM OVC150
  FM252200 02009KT P6SM VCSH OVC050
  FM260300 04006KT P6SM OVC100


Raw METAR
KSTL 251551Z 02008KT 10SM FEW150 OVC200 17/09 A3005 RMK AO2 SLP173 T01670089
KSTL 251451Z 35008KT 10SM FEW150 OVC200 16/08 A3007 RMK AO2 SLP178 T01560078 53009
KSTL 251351Z 35008KT 10SM FEW150 OVC250 15/07 A3005 RMK AO2 SLP171 T01500072

METAR Board
Radar Display
Forecast Discussion

FOR SITUATIONAL AWARENESS. NOT TO BE USED FOR FLIGHT PLANNING PURPOSES.